createdAt,value
2023-05-25T00:01:02.562Z,9.55
2023-05-25T00:06:20.900Z,10.75
2023-05-25T00:09:01.525Z,9.68
2023-05-25T00:11:37.534Z,9.85
2023-05-25T00:16:54.195Z,11.10
2023-05-25T00:19:34.648Z,11.23
2023-05-25T00:22:11.397Z,9.98
2023-05-25T00:52:22.496Z,10.80
2023-05-25T00:55:01.028Z,18.50
2023-05-25T01:09:57.128Z,9.38
2023-05-25T01:12:53.786Z,13.88
2023-05-25T01:15:29.529Z,11.50
2023-05-25T01:20:43.910Z,9.38
2023-05-25T01:23:28.791Z,9.77
2023-05-25T01:26:07.133Z,10.88
2023-05-25T01:28:47.230Z,11.38
2023-05-25T01:31:27.931Z,9.13
2023-05-25T01:34:04.345Z,9.25
2023-05-25T01:36:40.690Z,8.40
2023-05-25T01:39:24.682Z,11.55
2023-05-25T01:42:05.154Z,16.23
2023-05-25T01:44:42.962Z,10.27
2023-05-25T01:47:24.509Z,11.32
2023-05-25T01:50:03.854Z,12.50
2023-05-25T01:52:40.935Z,14.90
2023-05-25T01:55:19.323Z,10.82
2023-05-25T01:57:58.373Z,14.40
2023-05-25T02:00:35.754Z,9.57
2023-05-25T02:03:12.613Z,10.48
2023-05-25T02:05:48.491Z,7.88
2023-05-25T02:08:29.910Z,9.32
2023-05-25T02:11:16.470Z,7.65
2023-05-25T02:13:57.148Z,8.68
2023-05-25T02:16:39.084Z,10.57
2023-05-25T02:19:18.376Z,14.45
2023-05-25T02:21:55.065Z,11.10
2023-05-25T02:24:35.442Z,11.27
2023-05-25T02:27:18.499Z,10.85
2023-05-25T02:29:55.356Z,9.60
2023-05-25T02:32:34.280Z,13.30
2023-05-25T02:35:14.102Z,13.65
2023-05-25T02:37:53.149Z,11.80
2023-05-25T02:40:31.373Z,13.10
2023-05-25T02:43:10.217Z,9.25
2023-05-25T02:45:49.357Z,15.38
2023-05-25T02:48:27.304Z,17.67
2023-05-25T02:51:05.952Z,17.05
2023-05-25T02:53:40.317Z,13.93
2023-05-25T02:56:19.940Z,16.95
2023-05-25T02:59:06.348Z,20.25
2023-05-25T03:01:46.469Z,13.93
2023-05-25T03:04:22.624Z,17.95
2023-05-25T03:07:03.120Z,18.63
2023-05-25T03:09:40.197Z,20.35
2023-05-25T03:12:22.107Z,22.77
2023-05-25T03:15:05.712Z,17.45
2023-05-25T03:17:41.631Z,21.80
2023-05-25T03:20:17.828Z,20.27
2023-05-25T03:23:00.535Z,17.85
2023-05-25T03:25:38.951Z,19.70
2023-05-25T03:28:16.580Z,20.60
2023-05-25T03:30:59.938Z,20.77
2023-05-25T03:33:39.437Z,22.45
2023-05-25T03:36:17.737Z,20.02
2023-05-25T03:38:56.627Z,19.23
2023-05-25T03:41:35.087Z,21.13
2023-05-25T03:44:16.595Z,18.90
2023-05-25T03:46:58.874Z,23.00
2023-05-25T03:49:37.145Z,27.10
2023-05-25T03:52:14.056Z,19.63
2023-05-25T03:54:50.632Z,18.48
2023-05-25T03:57:27.786Z,20.50
2023-05-25T04:00:12.094Z,21.75
2023-05-25T04:02:57.626Z,18.83
2023-05-25T04:05:34.304Z,21.50
2023-05-25T04:08:11.485Z,18.70
2023-05-25T04:10:51.967Z,20.45
2023-05-25T04:13:32.118Z,22.63
2023-05-25T04:16:11.617Z,21.13
2023-05-25T04:18:53.054Z,19.33
2023-05-25T04:21:31.161Z,21.35
2023-05-25T04:24:13.394Z,22.08
2023-05-25T04:27:03.846Z,24.23
2023-05-25T04:29:39.827Z,19.52
2023-05-25T04:32:22.514Z,20.25
2023-05-25T04:35:10.747Z,14.60
2023-05-25T04:37:55.416Z,20.35
2023-05-25T04:40:33.608Z,21.27
2023-05-25T04:43:27.564Z,21.05
2023-05-25T04:46:09.259Z,21.70
2023-05-25T04:48:55.784Z,21.10
2023-05-25T04:51:39.829Z,22.80
2023-05-25T04:54:42.173Z,23.85
2023-05-25T04:57:28.872Z,24.33
2023-05-25T05:00:15.672Z,23.10
2023-05-25T05:02:54.696Z,20.02
2023-05-25T05:05:31.583Z,20.83
2023-05-25T05:08:15.817Z,21.90
2023-05-25T05:10:53.429Z,19.83
2023-05-25T05:13:30.692Z,26.53
2023-05-25T05:16:10.647Z,23.05
2023-05-25T05:18:47.267Z,18.10
2023-05-25T05:21:23.536Z,20.02
2023-05-25T05:24:04.270Z,19.90
2023-05-25T05:26:55.788Z,20.25
2023-05-25T05:29:37.990Z,17.85
2023-05-25T05:32:19.018Z,19.58
2023-05-25T05:37:55.036Z,15.75
2023-05-25T05:40:37.271Z,17.77
2023-05-25T05:43:16.962Z,18.45
2023-05-25T05:46:00.572Z,18.25
2023-05-25T05:48:42.536Z,19.35
2023-05-25T05:51:22.830Z,15.10
2023-05-25T05:54:02.030Z,20.45
2023-05-25T05:59:27.478Z,20.55
2023-05-25T06:02:05.115Z,16.65
2023-05-25T06:04:44.141Z,23.50
2023-05-25T06:07:23.255Z,22.08
2023-05-25T06:10:01.957Z,17.35
2023-05-25T06:12:35.775Z,18.20
2023-05-25T06:15:20.139Z,16.85
2023-05-25T06:17:58.219Z,19.77
2023-05-25T06:20:38.001Z,17.63
2023-05-25T06:23:19.163Z,19.63
2023-05-25T06:25:59.070Z,20.27
2023-05-25T06:28:42.880Z,20.33
2023-05-25T06:31:23.902Z,14.63
2023-05-25T06:34:04.182Z,18.08
2023-05-25T06:36:41.766Z,18.67
2023-05-25T06:39:18.541Z,22.67
2023-05-25T06:42:01.464Z,17.67
2023-05-25T06:44:43.699Z,13.73
2023-05-25T06:47:22.083Z,13.82
2023-05-25T06:50:00.123Z,17.27
2023-05-25T06:52:37.808Z,13.80
2023-05-25T06:55:16.176Z,15.13
2023-05-25T06:57:55.320Z,18.90
2023-05-25T07:00:33.209Z,21.45
2023-05-25T07:06:17.806Z,15.35
2023-05-25T07:08:56.270Z,18.17
2023-05-25T07:11:34.846Z,19.20
2023-05-25T07:14:24.213Z,19.83
2023-05-25T07:17:08.132Z,17.10
2023-05-25T07:19:54.904Z,17.92
2023-05-25T07:22:35.494Z,18.10
2023-05-25T07:25:25.376Z,18.15
2023-05-25T07:28:04.242Z,17.20
2023-05-25T07:33:26.915Z,19.88
2023-05-25T07:36:05.520Z,15.27
2023-05-25T07:38:45.905Z,15.17
2023-05-25T07:41:23.604Z,23.55
2023-05-25T07:44:05.538Z,17.95
2023-05-25T07:46:44.353Z,20.67
2023-05-25T07:49:22.942Z,18.63
2023-05-25T07:52:05.062Z,21.05
2023-05-25T08:00:44.473Z,13.50
2023-05-25T08:03:31.828Z,20.35
2023-05-25T08:06:12.068Z,14.95
2023-05-25T08:08:53.849Z,13.03
2023-05-25T08:14:26.152Z,15.43
2023-05-25T08:17:12.124Z,17.95
2023-05-25T08:19:53.282Z,14.07
2023-05-25T08:22:35.974Z,16.30
2023-05-25T08:25:14.232Z,20.52
2023-05-25T08:27:53.150Z,13.63
2023-05-25T08:30:32.927Z,11.20
2023-05-25T08:33:17.880Z,12.23
2023-05-25T08:36:00.705Z,12.53
2023-05-25T08:38:40.496Z,12.95
2023-05-25T08:41:21.108Z,18.23
2023-05-25T08:43:58.821Z,13.45
2023-05-25T08:46:38.524Z,14.27
2023-05-25T08:49:18.227Z,15.30
2023-05-25T08:51:56.420Z,13.20
2023-05-25T08:54:41.909Z,12.80
2023-05-25T08:57:25.038Z,12.13
2023-05-25T09:00:08.915Z,13.23
2023-05-25T09:02:46.699Z,17.77
2023-05-25T09:05:28.526Z,12.38
2023-05-25T09:08:05.587Z,12.35
2023-05-25T09:10:42.923Z,13.37
2023-05-25T09:16:19.427Z,10.70
2023-05-25T09:19:20.264Z,12.10
2023-05-25T09:24:42.126Z,9.00
2023-05-25T09:27:21.034Z,8.70
2023-05-25T09:35:49.214Z,12.20
2023-05-25T09:38:33.992Z,11.13
2023-05-25T09:41:10.337Z,11.10
2023-05-25T09:44:01.385Z,19.83
2023-05-25T09:46:43.075Z,21.65
2023-05-25T09:49:20.792Z,9.30
2023-05-25T09:52:05.014Z,9.15
2023-05-25T09:54:45.651Z,7.70
2023-05-25T09:57:21.274Z,6.25
2023-05-25T10:00:00.480Z,7.38
2023-05-25T10:02:38.653Z,8.98
2023-05-25T10:05:21.283Z,7.33
2023-05-25T10:07:58.979Z,10.32
2023-05-25T10:10:39.863Z,10.23
2023-05-25T10:13:15.958Z,8.13
2023-05-25T10:16:27.721Z,6.82
2023-05-25T10:19:09.769Z,7.07
2023-05-25T10:21:45.330Z,7.40
2023-05-25T10:24:25.929Z,12.30
2023-05-25T10:27:14.617Z,9.00
2023-05-25T10:30:02.233Z,7.97
2023-05-25T10:32:38.600Z,11.07
2023-05-25T10:35:18.415Z,9.48
2023-05-25T10:37:54.205Z,7.47
2023-05-25T10:40:35.918Z,8.90
2023-05-25T10:43:16.910Z,99.53
2023-05-25T10:45:59.305Z,20.48
2023-05-25T10:48:43.721Z,12.75
2023-05-25T10:51:24.724Z,13.10
2023-05-25T10:54:10.513Z,23.35
2023-05-25T11:00:00.806Z,13.35
2023-05-25T11:05:44.271Z,30.50
2023-05-25T11:08:24.513Z,13.93
2023-05-25T11:11:09.649Z,18.63
2023-05-25T11:13:45.344Z,56.97
2023-05-25T11:16:58.436Z,19.05
2023-05-25T11:19:51.410Z,66.93
2023-05-25T11:22:37.011Z,88.60
2023-05-25T11:25:13.290Z,34.85
2023-05-25T11:28:03.429Z,34.30
2023-05-25T11:31:13.482Z,9.82
2023-05-25T11:33:55.084Z,20.23
2023-05-25T11:36:32.268Z,10.95
2023-05-25T11:39:22.824Z,10.43
2023-05-25T11:42:04.775Z,33.93
2023-05-25T11:44:43.774Z,12.98
2023-05-25T11:47:19.212Z,16.20
2023-05-25T11:52:53.115Z,13.27
2023-05-25T11:55:30.544Z,28.90
2023-05-25T11:58:06.738Z,14.00
2023-05-25T12:00:59.814Z,9.70
2023-05-25T12:03:38.358Z,10.63
2023-05-25T12:06:34.228Z,17.38
2023-05-25T12:09:20.626Z,10.05
2023-05-25T12:12:02.644Z,7.60
2023-05-25T12:14:42.844Z,7.63
2023-05-25T12:17:20.184Z,9.95
2023-05-25T12:19:59.482Z,10.00
2023-05-25T12:22:46.290Z,11.13
2023-05-25T12:28:15.220Z,10.65
2023-05-25T12:30:55.300Z,12.10
2023-05-25T12:33:31.816Z,9.48
2023-05-25T12:36:11.332Z,14.20
2023-05-25T12:39:04.425Z,6.65
2023-05-25T12:42:00.176Z,8.20
2023-05-25T12:44:36.812Z,9.80
2023-05-25T12:47:21.950Z,9.27
2023-05-25T12:50:18.604Z,9.52
2023-05-25T12:52:58.715Z,10.35
2023-05-25T12:55:42.338Z,8.45
2023-05-25T12:58:33.662Z,9.03
2023-05-25T13:01:14.017Z,9.57
2023-05-25T13:03:52.252Z,7.30
2023-05-25T13:06:32.578Z,8.70
2023-05-25T13:09:16.015Z,8.80
2023-05-25T13:11:58.360Z,9.20
2023-05-25T13:14:39.571Z,6.05
2023-05-25T13:17:20.737Z,12.80
2023-05-25T13:20:02.308Z,6.53
2023-05-25T13:22:38.202Z,15.48
2023-05-25T13:25:14.927Z,8.87
2023-05-25T13:27:55.458Z,7.90
2023-05-25T13:30:34.570Z,22.60
2023-05-25T13:33:09.031Z,7.97
2023-05-25T13:35:59.305Z,8.88
2023-05-25T13:38:36.088Z,6.03
2023-05-25T13:41:20.036Z,9.30
2023-05-25T13:44:00.430Z,8.27
2023-05-25T13:46:39.053Z,6.22
2023-05-25T13:49:24.045Z,9.05
2023-05-25T13:52:04.736Z,8.10
2023-05-25T13:54:46.914Z,6.70
2023-05-25T13:57:23.261Z,10.70
2023-05-25T14:00:05.808Z,9.43
2023-05-25T14:02:41.152Z,8.35
2023-05-25T14:05:23.514Z,7.10
2023-05-25T14:08:05.259Z,30.77
2023-05-25T14:10:40.757Z,9.18
2023-05-25T14:13:27.537Z,8.05
2023-05-25T14:16:11.895Z,8.85
2023-05-25T14:18:49.260Z,21.75
2023-05-25T14:21:28.795Z,9.18
2023-05-25T14:24:05.796Z,8.82
2023-05-25T14:26:47.873Z,6.03
2023-05-25T14:29:24.332Z,9.35
2023-05-25T14:32:05.872Z,11.50
2023-05-25T14:34:44.219Z,8.65
2023-05-25T14:37:25.416Z,9.63
2023-05-25T14:40:07.354Z,6.50
2023-05-25T14:42:41.793Z,6.63
2023-05-25T14:45:18.852Z,9.45
2023-05-25T14:48:11.883Z,5.88
2023-05-25T14:50:52.801Z,7.60
2023-05-25T14:56:11.149Z,7.65
2023-05-25T14:58:48.293Z,6.60
2023-05-25T15:01:30.002Z,9.07
2023-05-25T15:04:13.608Z,10.70
2023-05-25T15:06:48.246Z,12.77
2023-05-25T15:09:26.048Z,24.35
2023-05-25T15:12:03.677Z,20.90
2023-05-25T15:14:41.316Z,6.75
2023-05-25T15:17:17.211Z,7.78
2023-05-25T15:19:56.967Z,7.55
2023-05-25T15:22:32.088Z,5.47
2023-05-25T15:25:06.930Z,5.93
2023-05-25T15:27:41.517Z,8.17
2023-05-25T15:30:18.735Z,8.02
2023-05-25T15:32:53.837Z,7.53
2023-05-25T15:35:34.862Z,5.22
2023-05-25T15:38:10.145Z,5.35
2023-05-25T15:40:45.039Z,5.82
2023-05-25T15:43:20.454Z,6.47
2023-05-25T15:45:55.537Z,8.57
2023-05-25T15:48:30.692Z,6.00
2023-05-25T15:51:08.745Z,7.30
2023-05-25T15:53:44.017Z,8.97
2023-05-25T15:56:18.780Z,6.30
2023-05-25T15:58:53.879Z,6.30
2023-05-25T16:01:28.754Z,7.30
2023-05-25T16:04:04.021Z,7.10
2023-05-25T16:06:42.031Z,8.15
2023-05-25T16:09:16.532Z,9.40
2023-05-25T16:11:51.957Z,11.83
2023-05-25T16:14:26.877Z,5.70
2023-05-25T16:17:02.257Z,5.97
2023-05-25T16:19:36.882Z,4.55
2023-05-25T16:22:15.163Z,7.68
2023-05-25T16:24:49.929Z,4.50
2023-05-25T16:27:25.280Z,6.60
2023-05-25T16:30:01.556Z,8.80
2023-05-25T16:32:36.534Z,8.50
2023-05-25T16:35:13.881Z,4.88
2023-05-25T16:37:54.340Z,5.90
2023-05-25T16:40:30.683Z,5.35
2023-05-25T16:43:05.658Z,7.40
2023-05-25T16:45:40.581Z,10.30
2023-05-25T16:48:16.098Z,7.70
2023-05-25T16:50:51.557Z,7.65
2023-05-25T16:53:29.722Z,7.40
2023-05-25T16:56:05.010Z,9.02
2023-05-25T16:58:40.551Z,8.15
2023-05-25T17:01:17.954Z,6.07
2023-05-25T17:03:53.103Z,8.02
2023-05-25T17:06:28.303Z,8.93
2023-05-25T17:09:09.347Z,11.35
2023-05-25T17:11:45.963Z,6.18
2023-05-25T17:14:21.673Z,8.90
2023-05-25T17:16:57.680Z,10.95
2023-05-25T17:19:32.752Z,10.20
2023-05-25T17:22:08.294Z,6.40
2023-05-25T17:24:47.993Z,8.20
2023-05-25T17:27:23.422Z,7.50
2023-05-25T17:29:59.904Z,9.35
2023-05-25T17:32:40.780Z,9.48
2023-05-25T17:35:21.187Z,11.77
2023-05-25T17:37:56.716Z,7.50
2023-05-25T17:43:10.183Z,7.50
2023-05-25T17:45:45.613Z,7.50
2023-05-25T17:48:23.346Z,7.07
2023-05-25T17:50:56.900Z,11.18
2023-05-25T17:53:31.937Z,9.63
2023-05-25T17:56:13.061Z,8.85
2023-05-25T17:58:48.004Z,8.23
2023-05-25T18:01:22.843Z,8.35
2023-05-25T18:04:00.484Z,9.43
2023-05-25T18:06:37.930Z,5.80
2023-05-25T18:09:13.670Z,6.75
2023-05-25T18:11:55.091Z,13.45
2023-05-25T18:14:35.742Z,14.75
2023-05-25T18:17:12.362Z,22.23
2023-05-25T18:19:51.173Z,25.43
2023-05-25T18:22:31.023Z,14.25
2023-05-25T18:25:14.323Z,19.25
2023-05-25T18:27:57.794Z,14.23
2023-05-25T18:30:35.493Z,12.23
2023-05-25T18:33:14.344Z,8.00
2023-05-25T18:35:54.030Z,10.77
2023-05-25T18:38:34.123Z,12.80
2023-05-25T18:41:10.260Z,7.13
2023-05-25T18:43:50.599Z,8.43
2023-05-25T18:46:30.146Z,9.77
2023-05-25T18:49:08.100Z,12.10
2023-05-25T18:51:46.191Z,6.82
2023-05-25T18:54:20.899Z,8.40
2023-05-25T18:56:56.032Z,7.75
2023-05-25T18:59:34.275Z,8.03
2023-05-25T19:02:09.061Z,7.93
2023-05-25T19:04:44.207Z,7.97
2023-05-25T19:07:18.986Z,11.40
2023-05-25T19:09:54.275Z,8.00
2023-05-25T19:12:30.032Z,12.30
2023-05-25T19:15:08.917Z,9.50
2023-05-25T19:17:44.143Z,9.32
2023-05-25T19:20:21.257Z,9.83
2023-05-25T19:22:56.638Z,7.15
2023-05-25T19:25:35.096Z,7.45
2023-05-25T19:28:12.922Z,8.02
2023-05-25T19:30:55.683Z,9.10
2023-05-25T19:33:33.271Z,6.50
2023-05-25T19:36:09.904Z,10.48
2023-05-25T19:38:47.550Z,10.45
2023-05-25T19:41:23.456Z,7.70
2023-05-25T19:43:59.245Z,7.60
2023-05-25T19:46:37.021Z,14.25
2023-05-25T19:49:17.768Z,12.63
2023-05-25T19:51:58.627Z,11.95
2023-05-25T19:54:34.924Z,8.55
2023-05-25T19:57:12.830Z,13.40
2023-05-25T19:59:50.528Z,18.60
2023-05-25T20:02:32.628Z,9.00
2023-05-25T20:05:10.467Z,12.60
2023-05-25T20:07:58.088Z,13.05
2023-05-25T20:10:39.843Z,14.38
2023-05-25T20:13:18.847Z,20.42
2023-05-25T20:15:56.184Z,25.33
2023-05-25T20:18:38.676Z,17.02
2023-05-25T20:21:19.330Z,30.92
2023-05-25T20:23:58.356Z,20.85
2023-05-25T20:26:37.163Z,15.95
2023-05-25T20:29:15.619Z,20.05
2023-05-25T20:31:51.853Z,16.05
2023-05-25T20:34:34.706Z,14.80
2023-05-25T20:37:17.417Z,16.42
2023-05-25T20:39:56.232Z,17.00
2023-05-25T20:42:35.525Z,17.47
2023-05-25T20:45:17.942Z,18.15
2023-05-25T20:48:03.234Z,12.90
2023-05-25T20:50:43.904Z,12.65
2023-05-25T20:53:20.299Z,11.20
2023-05-25T20:55:57.970Z,18.20
2023-05-25T20:58:40.916Z,14.75
2023-05-25T21:01:21.778Z,14.77
2023-05-25T21:04:04.692Z,14.07
2023-05-25T21:06:41.203Z,13.38
2023-05-25T21:09:23.185Z,9.65
2023-05-25T21:12:04.774Z,11.65
2023-05-25T21:14:46.669Z,12.83
2023-05-25T21:17:31.295Z,15.27
2023-05-25T21:20:17.949Z,13.90
2023-05-25T21:25:53.430Z,12.70
2023-05-25T21:28:34.280Z,11.95
2023-05-25T21:31:16.676Z,14.70
2023-05-25T21:34:01.894Z,11.52
2023-05-25T21:36:43.198Z,13.33
2023-05-25T21:39:25.085Z,14.82
2023-05-25T21:42:07.724Z,16.85
2023-05-25T21:44:49.559Z,11.35
2023-05-25T21:47:32.476Z,11.05
2023-05-25T21:50:07.456Z,12.13
2023-05-25T21:52:46.290Z,26.60
2023-05-25T21:55:29.752Z,14.82
2023-05-25T21:58:18.226Z,15.77
2023-05-25T22:00:56.515Z,12.85
2023-05-25T22:03:34.909Z,18.73
2023-05-25T22:06:15.536Z,16.48
2023-05-25T22:08:53.452Z,14.27
2023-05-25T22:11:30.631Z,15.40
2023-05-25T22:14:11.194Z,14.63
2023-05-25T22:16:52.494Z,14.10
2023-05-25T22:19:33.907Z,14.95
2023-05-25T22:22:12.891Z,11.05
2023-05-25T22:24:51.115Z,15.02
2023-05-25T22:27:33.072Z,13.93
2023-05-25T22:30:14.197Z,17.77
2023-05-25T22:32:49.811Z,14.55
2023-05-25T22:35:28.091Z,18.75
2023-05-25T22:38:03.725Z,13.77
2023-05-25T22:40:47.840Z,16.42
2023-05-25T22:43:30.204Z,14.32
2023-05-25T22:46:13.375Z,20.47
2023-05-25T22:48:53.690Z,20.57
2023-05-25T22:51:30.592Z,18.23
2023-05-25T22:54:05.052Z,22.13
2023-05-25T22:56:46.769Z,26.77
2023-05-25T22:59:23.367Z,26.35
2023-05-25T23:02:09.143Z,28.63
2023-05-25T23:04:46.562Z,22.42
2023-05-25T23:07:22.510Z,23.73
2023-05-25T23:12:49.338Z,13.65
2023-05-25T23:15:31.175Z,17.00
2023-05-25T23:18:10.364Z,31.98
2023-05-25T23:20:45.868Z,37.15
2023-05-25T23:23:31.005Z,35.35
2023-05-25T23:26:08.793Z,70.07
2023-05-25T23:28:45.761Z,69.05
2023-05-25T23:31:21.944Z,55.72
2023-05-25T23:34:00.730Z,84.88
2023-05-25T23:36:39.630Z,57.33
2023-05-25T23:39:16.594Z,53.10
2023-05-25T23:41:52.346Z,40.53
2023-05-25T23:44:36.532Z,30.80
2023-05-25T23:47:16.167Z,26.88
2023-05-25T23:49:55.537Z,25.70
2023-05-25T23:52:35.372Z,20.63
2023-05-25T23:55:19.999Z,19.23
2023-05-25T23:57:57.308Z,20.15
